Mineral Point, WI

20:25 CDT le 20 avril 2015 (GMT -0500)
KWIMINER1 | | Change Station
CLOSE
Current Station
Stations météorologiques personnelles
Location: Mineral Point, WI
Altitude: 1066 ft
Stations météo à proximité

Alt. 1066 ft 42.85 °N, 90.18 °W | Updated 5 minutes ago

Couvert
Couvert
41.6 ° F
Paraît 42 ° F
N
1.0
Vent Variable Vent de OSO
Gusts 14.0 mph

Aujourd'hui
Haut(e) -- | Bas -- ° F
--% Risque de précip.
Hier
Haut(e) -- | Bas -- ° F
Precip. -- pouce
6:11 AM 7:48 PM
Lune montante, 7% visible
Pression 29.56 pouce
Visibilité 10.0 Miles terrestres
Nuages Nuages épars 4200 ft
Couvert 6000 ft
Refroidissement éolien 42 ° F
Point de rosée 32 ° F
Humidité 69%
Précipitations 0.46 pouce
Profondeur de la couche neigeuse Non disponible.
UV 0 sur 12
Pollen 10.40 sur 12
Qualité de l'air Non disponible.
Flu Activity Local Activity
METAR KMRJ 210110Z AUTO 27018G23KT 10SM SCT042 OVC060 06/M01 A2956 RMK AO2

More Conditions Fewer Conditions

Pression 29.56 pouce
Visibilité 10.0 Miles terrestres
Nuages Nuages épars 4200 ft
Couvert 6000 ft
Refroidissement éolien 42 ° F
Point de rosée 32 ° F
Humidité 69%
Précipitations 0.46 pouce
Profondeur de la couche neigeuse Non disponible.
UV 0 sur 12
Pollen 10.40 sur 12
Qualité de l'air Non disponible.
Flu Activity Local Activity
METAR KMRJ 210110Z AUTO 27018G23KT 10SM SCT042 OVC060 06/M01 A2956 RMK AO2

More Conditions Fewer Conditions

10-Day Weather Forecast

Almanac

Astronomie

Apr. 20, 2015 Lever Coucher
Temps réel
Crépuscule civil
Crépuscule nautique
Crépuscule astronomique
Lune
Durée de lumière visible
Longueur du jour
Tomorrow will be .
, % of the Moon is Illuminated

Extrêmes aujourd'hui

State Highs State Lows

Community

WunderPhotos

Upload Photos

1,815,274 Photos téléchargées !

WunderBlogs® & News

Nearby

Qualité de l'air

  Qualité de l'air Indice de la qualité de l'air Polluant
Not available.

Épaisseur de neige

Station Depth Altitude

Activité sismique

Ville Distance Mag. Time & Date
Minimum magnitude displayed is 2.5.

Températures des eaux côtières

Lieu Température

Stations

Stations météo à proximité

Emplacement de la station Température Refroidissement éolien Point de rosée Humidité Vent Precip. Alt. Mise à jour Type